Time;durP1;ratioP1;P1;durP2;ratioP2;P2;SDS_P1;SDS_P2;PMS_P1;PMS_P2;Temp;Humidity;BMP_temperature;BMP_pressure;BME280_temperature;BME280_humidity;BME280_pressure;Samples;Min_cycle;Max_cycle;Signal;HPM_P1;HPM_P2
2023/05/27 00:00:17;;;;;;;0.63;0.63;;;;;;;13.96;100.00;100346.69;4929470;29;20641;-77
2023/05/27 00:02:44;;;;;;;0.43;0.43;;;;;;;13.88;100.00;100340.53;4922052;29;20235;-78
2023/05/27 00:05:12;;;;;;;0.30;0.30;;;;;;;13.85;100.00;100357.38;4927373;29;20325;-79
2023/05/27 00:07:41;;;;;;;0.50;0.50;;;;;;;13.77;100.00;100361.84;4924958;29;20234;-78
2023/05/27 00:10:08;;;;;;;0.40;0.40;;;13.40;99.90;;;13.80;100.00;100374.25;4920166;29;20239;-78
2023/05/27 00:12:36;;;;;;;0.50;0.50;;;;;;;13.69;100.00;100374.28;4925220;29;20227;-78
2023/05/27 00:15:03;;;;;;;0.30;0.30;;;;;;;13.63;100.00;100379.63;4913385;29;20234;-77
2023/05/27 00:17:31;;;;;;;0.43;0.43;;;;;;;13.67;100.00;100394.66;4919726;29;20231;-77
2023/05/27 00:20:06;;;;;;;0.50;0.50;;;;;;;13.56;100.00;100401.81;4926706;28;20238;-77
2023/05/27 00:22:34;;;;;;;0.38;0.38;;;;;;;13.58;100.00;100415.97;4925965;29;20639;-77
2023/05/27 00:25:02;;;;;;;1.00;1.00;;;;;;;13.47;100.00;100408.03;4929467;29;20243;-77
2023/05/27 00:27:30;;;;;;;0.40;0.40;;;;;;;13.51;100.00;100423.06;4935466;29;20245;-77
2023/05/27 00:29:57;;;;;;;0.20;0.20;;;;;;;13.50;100.00;100434.59;4928404;29;20242;-78
2023/05/27 00:32:25;;;;;;;0.20;0.20;;;;;;;13.49;100.00;100462.03;4931623;29;20227;-77
2023/05/27 00:34:52;;;;;;;0.30;0.30;;;;;;;13.34;100.00;100440.84;4922898;29;20258;-77
2023/05/27 00:37:20;;;;;;;0.30;0.30;;;;;;;13.34;100.00;100456.78;4927624;29;20236;-77
2023/05/27 00:39:47;;;;;;;0.30;0.30;;;13.10;99.90;;;13.22;100.00;100459.44;4932187;29;20321;-77
2023/05/27 00:42:14;;;;;;;0.20;0.20;;;;;;;13.27;100.00;100478.91;4927879;29;20257;-77
2023/05/27 00:44:42;;;;;;;0.30;0.30;;;;;;;13.34;100.00;100491.28;4931007;29;20277;-79
2023/05/27 00:47:09;;;;;;;0.30;0.30;;;;;;;13.24;100.00;100503.69;4929447;29;20242;-79
2023/05/27 00:49:38;;;;;;;0.30;0.30;;;;;;;13.15;100.00;100495.72;4926704;29;20242;-78
2023/05/27 00:52:05;;;;;;;0.40;0.40;;;12.90;99.90;;;13.11;100.00;100496.59;4931531;28;20237;-77
2023/05/27 00:54:33;;;;;;;0.40;0.40;;;;;;;13.05;100.00;100502.78;4927529;29;20245;-77
2023/05/27 00:57:03;;;;;;;0.30;0.30;;;;;;;13.05;100.00;100515.19;4935613;29;20727;-77
2023/05/27 00:59:31;;;;;;;0.20;0.20;;;;;;;13.10;100.00;100532.00;4928508;28;20231;-77
2023/05/27 01:01:58;;;;;;;0.40;0.40;;;;;;;12.94;100.00;100540.81;4929984;29;20242;-76
2023/05/27 01:04:26;;;;;;;0.50;0.50;;;12.70;99.90;;;13.02;100.00;100557.66;4935480;28;20238;-77
2023/05/27 01:07:08;;;;;;;0.40;0.40;;;12.70;99.90;;;13.04;100.00;100563.84;4924989;29;20322;-78
2023/05/27 01:09:47;;;;;;;0.70;0.70;;;12.70;99.90;;;12.95;100.00;100561.16;4919791;29;20243;-79
2023/05/27 01:12:37;;;;;;;0.38;0.38;;;12.70;99.90;;;13.00;100.00;100573.59;4923871;29;20241;-76
2023/05/27 01:15:07;;;;;;;0.50;0.50;;;12.60;99.90;;;12.83;100.00;100554.94;4929621;29;20250;-78
2023/05/27 01:17:37;;;;;;;0.30;0.30;;;;;;;12.90;100.00;100573.53;4932547;29;20663;-76
2023/05/27 01:20:06;;;;;;;0.32;0.32;;;12.50;99.90;;;12.74;100.00;100551.38;4925152;29;20322;-78
2023/05/27 01:22:35;;;;;;;0.30;0.30;;;;;;;12.79;100.00;100581.47;4929358;29;20249;-77
2023/05/27 01:25:03;;;;;;;0.40;0.40;;;12.50;99.90;;;12.73;100.00;100586.75;4932200;29;20239;-78
2023/05/27 01:27:32;;;;;;;0.30;0.30;;;;;;;12.68;100.00;100591.19;4929306;29;20241;-77
2023/05/27 01:29:59;;;;;;;0.50;0.50;;;;;;;12.66;100.00;100598.25;4933447;29;20321;-77
2023/05/27 01:32:55;;;;;;;0.30;0.30;;;12.40;99.90;;;12.61;100.00;100607.97;4930963;29;20253;-78
2023/05/27 01:35:55;;;;;;;0.30;0.30;;;12.30;99.90;;;12.56;100.00;100615.91;4926011;29;20301;-76
2023/05/27 01:38:26;;;;;;;0.40;0.40;;;12.30;99.90;;;12.55;100.00;100619.44;4923524;29;20238;-77
2023/05/27 01:40:54;;;;;;;0.60;0.60;;;;;;;12.60;100.00;100648.63;4925384;29;20250;-77
2023/05/27 01:43:22;;;;;;;0.30;0.30;;;12.30;99.90;;;12.52;100.00;100647.72;4942282;28;20253;-77
2023/05/27 01:45:50;;;;;;;0.70;0.70;;;;;;;12.54;100.00;100656.56;4927473;29;20242;-77
2023/05/27 01:48:19;;;;;;;0.50;0.50;;;;;;;12.48;100.00;100665.38;4931909;29;20250;-76
2023/05/27 01:50:46;;;;;;;1.00;0.90;;;;;;;12.36;100.00;100652.94;4926732;29;20230;-77
2023/05/27 01:53:14;;;;;;;1.77;0.93;;;;;;;12.48;100.00;100673.34;4932676;29;20237;-76
2023/05/27 01:55:41;;;;;;;0.30;0.30;;;;;;;12.35;100.00;100664.44;4929144;29;20239;-77
2023/05/27 01:58:09;;;;;;;0.30;0.30;;;;;;;12.37;100.00;100675.94;4931060;28;20245;-77
2023/05/27 02:00:36;;;;;;;0.50;0.50;;;;;;;12.36;100.00;100686.53;4928452;28;20246;-77
2023/05/27 02:03:04;;;;;;;1.48;0.90;;;;;;;12.29;100.00;100687.38;4909003;29;20239;-77
2023/05/27 02:05:33;;;;;;;0.57;0.57;;;12.00;99.90;;;12.25;100.00;100681.16;4930022;29;20250;-77
2023/05/27 02:08:00;;;;;;;0.40;0.40;;;;;;;12.33;100.00;100719.22;4930640;29;20603;-78
2023/05/27 02:10:28;;;;;;;0.30;0.30;;;12.00;99.90;;;12.20;100.00;100708.53;4923602;29;20250;-77
2023/05/27 02:12:56;;;;;;;0.40;0.40;;;;;;;12.24;100.00;100712.97;4929934;29;20254;-77
2023/05/27 02:15:24;;;;;;;0.50;0.50;;;;;;;12.06;100.00;100696.06;4922194;29;20716;-77
2023/05/27 02:17:55;;;;;;;0.60;0.60;;;;;;;12.13;100.00;100708.50;4922541;29;20255;-78
2023/05/27 02:20:23;;;;;;;0.60;0.60;;;11.80;99.90;;;12.12;100.00;100725.28;4927116;29;20290;-77
2023/05/27 02:22:51;;;;;;;0.68;0.63;;;11.80;99.90;;;12.05;100.00;100720.81;4925340;29;20231;-78
2023/05/27 02:25:18;;;;;;;1.38;1.15;;;;;;;12.18;100.00;100745.63;4922422;29;20245;-77
2023/05/27 02:27:52;;;;;;;1.10;1.00;;;;;;;12.03;100.00;100734.91;4925402;29;20242;-77
2023/05/27 02:30:19;;;;;;;1.00;0.90;;;;;;;12.12;100.00;100749.13;4928359;29;20349;-77
2023/05/27 02:32:47;;;;;;;1.08;0.90;;;;;;;11.92;100.00;100723.34;4926385;29;20234;-77
2023/05/27 02:35:15;;;;;;;0.70;0.70;;;;;;;12.03;100.00;100748.19;4926250;29;20240;-77
2023/05/27 02:37:42;;;;;;;0.90;0.88;;;;;;;11.93;100.00;100754.28;4927789;29;20234;-77
2023/05/27 02:40:10;;;;;;;0.68;0.68;;;;;;;11.97;100.00;100759.63;4925301;29;20246;-77
2023/05/27 02:42:38;;;;;;;0.75;0.75;;;;;;;11.95;100.00;100763.13;4919820;29;20243;-78
2023/05/27 02:45:07;;;;;;;0.55;0.55;;;;;;;11.76;100.00;100748.78;4925262;29;20277;-77
2023/05/27 02:47:35;;;;;;;0.70;0.70;;;;;;;11.85;100.00;100765.69;4927779;29;20333;-79
2023/05/27 02:50:02;;;;;;;0.68;0.68;;;;;;;11.74;100.00;100761.13;4925683;29;20243;-78
2023/05/27 02:52:30;;;;;;;0.80;0.80;;;;;;;11.62;100.00;100755.69;4928215;29;20725;-77
2023/05/27 02:54:57;;;;;;;0.98;0.88;;;;;;;11.69;100.00;100768.13;4928767;29;20242;-77
2023/05/27 02:57:25;;;;;;;0.90;0.80;;;;;;;11.58;100.00;100773.31;4930664;29;20236;-77
2023/05/27 02:59:52;;;;;;;1.20;1.10;;;;;;;11.70;100.00;100796.38;4922953;29;20231;-78
2023/05/27 03:02:19;;;;;;;1.27;1.10;;;;;;;11.55;100.00;100791.81;4931743;29;20249;-79
2023/05/27 03:04:47;;;;;;;1.98;0.90;;;;;;;11.65;100.00;100812.25;4921634;29;20267;-77
2023/05/27 03:07:15;;;;;;;0.60;0.60;;;;;;;11.54;100.00;100817.41;4931303;29;20242;-78
2023/05/27 03:09:42;;;;;;;1.17;1.08;;;;;;;11.60;100.00;100835.13;4931565;29;20703;-77
2023/05/27 03:12:10;;;;;;;1.00;0.90;;;;;;;11.52;100.00;100824.47;4923703;29;20242;-80
2023/05/27 03:14:37;;;;;;;1.73;1.38;;;;;;;11.47;100.00;100822.63;4919674;29;20238;-79
2023/05/27 03:17:05;;;;;;;1.45;1.10;;;;;;;11.59;100.00;100858.97;4926254;29;20710;-78
2023/05/27 03:19:32;;;;;;;1.00;0.90;;;;;;;11.45;100.00;100845.56;4922392;29;20235;-78
2023/05/27 03:22:00;;;;;;;1.30;1.10;;;;;;;11.38;100.00;100847.25;4924214;29;20273;-77
2023/05/27 03:24:27;;;;;;;1.08;0.90;;;;;;;11.44;100.00;100863.22;4925984;29;20231;-79
2023/05/27 03:26:55;;;;;;;1.00;0.90;;;;;;;11.37;100.00;100871.06;4926602;29;20249;-77
2023/05/27 03:29:23;;;;;;;1.25;1.05;;;;;;;11.37;100.00;100869.31;4925077;29;20241;-77
2023/05/27 03:31:50;;;;;;;1.42;1.15;;;;;;;11.34;100.00;100878.97;4924265;29;20247;-76
2023/05/27 03:34:17;;;;;;;1.13;0.90;;;;;;;11.36;100.00;100891.34;4911759;29;20281;-78
2023/05/27 03:36:46;;;;;;;1.15;1.00;;;;;;;11.30;100.00;100890.38;4920261;29;20298;-78
2023/05/27 03:39:13;;;;;;;1.55;1.45;;;;;;;11.26;100.00;100892.09;4925769;29;20278;-78
2023/05/27 03:41:41;;;;;;;1.25;1.10;;;11.10;99.90;;;11.34;100.00;100894.84;4931251;28;20237;-77
2023/05/27 03:44:08;;;;;;;1.45;1.10;;;;;;;11.38;100.00;100905.50;4927155;28;20234;-78
2023/05/27 03:46:36;;;;;;;1.25;1.00;;;;;;;11.29;100.00;100896.53;4919534;29;20299;-78
2023/05/27 03:49:03;;;;;;;1.13;1.00;;;;;;;11.37;100.00;100903.72;4925764;29;20239;-77
2023/05/27 03:51:31;;;;;;;1.90;1.80;;;;;;;11.23;100.00;100900.00;4923298;29;20235;-78
2023/05/27 03:53:58;;;;;;;0.75;0.75;;;;;;;11.26;100.00;100897.41;4925720;29;20707;-77
2023/05/27 03:56:26;;;;;;;0.68;0.68;;;;;;;11.20;100.00;100903.50;4930454;29;20243;-77
2023/05/27 03:58:54;;;;;;;0.80;0.70;;;;;;;11.26;100.00;100920.34;4929459;29;20238;-77
2023/05/27 04:01:21;;;;;;;0.98;0.88;;;;;;;11.38;100.00;100946.97;4929743;28;20707;-77
2023/05/27 04:03:49;;;;;;;1.30;1.00;;;;;;;11.27;100.00;100938.00;4928119;29;20321;-77
2023/05/27 04:06:17;;;;;;;2.85;1.80;;;;;;;11.13;100.00;100927.22;4920284;29;20246;-78
2023/05/27 04:08:45;;;;;;;0.90;0.90;;;;;;;11.20;100.00;100927.31;4931047;29;20242;-78
2023/05/27 04:11:15;;;;;;;1.30;1.13;;;11.00;99.90;;;11.30;100.00;100944.22;4930404;28;20366;-78
2023/05/27 04:13:43;;;;;;;1.40;1.20;;;;;;;11.35;100.00;100952.25;4920464;29;20234;-78
2023/05/27 04:16:10;;;;;;;1.27;1.10;;;;;;;11.46;100.00;100954.16;4907924;29;20238;-79
2023/05/27 04:18:38;;;;;;;1.70;1.20;;;;;;;11.39;100.00;100938.16;4928443;29;20243;-78
2023/05/27 04:21:05;;;;;;;1.20;1.10;;;;;;;11.38;100.00;100945.22;4928225;29;20234;-78
2023/05/27 04:23:33;;;;;;;1.10;1.00;;;;;;;11.44;100.00;100944.41;4919321;29;20265;-79
2023/05/27 04:26:00;;;;;;;1.30;1.20;;;;;;;11.47;100.00;100955.06;4928135;29;20240;-78
2023/05/27 04:28:28;;;;;;;1.10;1.00;;;;;;;11.38;100.00;100945.22;4923857;28;20235;-79
2023/05/27 04:30:55;;;;;;;1.23;1.10;;;;;;;11.44;100.00;100944.41;4927233;29;20290;-78
2023/05/27 04:33:23;;;;;;;1.75;1.40;;;;;;;11.38;100.00;100942.56;4926442;29;20246;-78
2023/05/27 04:35:53;;;;;;;1.27;1.10;;;;;;;11.48;100.00;100947.13;4925218;29;20239;-78
2023/05/27 04:38:21;;;;;;;1.48;1.25;;;;;;;11.48;100.00;100956.84;4935501;23;20234;-83
2023/05/27 04:40:55;;;;;;;1.65;1.55;;;11.30;99.90;;;11.49;100.00;100956.84;4925391;29;20775;-80
2023/05/27 04:43:23;;;;;;;1.77;1.55;;;;;;;11.58;100.00;100961.38;4930637;29;20248;-82
2023/05/27 04:45:50;;;;;;;2.08;1.40;;;;;;;11.62;100.00;100965.84;4924953;29;20239;-81
2023/05/27 04:48:19;;;;;;;1.00;0.90;;;;;;;11.70;100.00;100960.66;4925284;29;20242;-82
2023/05/27 04:50:48;;;;;;;1.10;1.00;;;;;;;11.70;100.00;100960.66;4932520;29;20678;-81
2023/05/27 04:53:16;;;;;;;1.48;1.25;;;;;;;11.78;100.00;100964.34;4922986;29;20254;-80
2023/05/27 04:55:43;;;;;;;1.30;1.08;;;;;;;11.82;100.00;100975.00;4932511;29;20237;-79
2023/05/27 04:58:11;;;;;;;1.90;1.25;;;;;;;11.85;100.00;100960.91;4931371;29;20242;-80
2023/05/27 05:00:49;;;;;;;1.33;1.15;;;;;;;11.92;100.00;100960.13;4933636;29;20250;-81
2023/05/27 05:03:21;;;;;;;2.30;1.80;;;11.60;99.90;;;11.92;100.00;100956.56;4934554;28;20252;-81
2023/05/27 05:05:53;;;;;;;1.00;0.90;;;11.80;99.90;;;12.01;100.00;100968.19;4929348;29;20238;-76
2023/05/27 05:08:21;;;;;;;1.50;1.38;;;11.80;99.90;;;12.06;100.00;100966.47;4924187;29;20234;-77
2023/05/27 05:10:49;;;;;;;1.38;1.17;;;;;;;12.16;100.00;100978.94;4935466;29;20256;-77
2023/05/27 05:13:17;;;;;;;1.58;1.08;;;;;;;12.20;100.00;100985.19;4940478;28;20244;-76
2023/05/27 05:15:45;;;;;;;1.48;1.30;;;;;;;12.28;100.00;100980.84;4921369;29;20289;-76
2023/05/27 05:18:12;;;;;;;6.20;2.83;;;;;;;12.33;100.00;100987.09;5558612;23;20271;-80
2023/05/27 05:20:40;;;;;;;1.88;1.77;;;;;;;12.30;100.00;100955.25;4920528;29;20242;-81
2023/05/27 05:23:09;;;;;;;1.08;0.90;;;;;;;12.33;100.00;100943.78;4927622;29;20243;-79
2023/05/27 05:25:37;;;;;;;1.95;1.45;;;;;;;12.48;100.00;100959.84;4927155;29;20317;-80
2023/05/27 05:28:05;;;;;;;2.00;1.40;;;;;;;12.46;100.00;100943.00;4927658;29;20287;-78
2023/05/27 05:30:33;;;;;;;1.63;1.30;;;;;;;12.55;100.00;100942.22;4922119;29;20242;-81
2023/05/27 05:33:00;;;;;;;1.40;1.13;;;;;;;12.72;100.00;100949.44;4932332;29;20238;-78
2023/05/27 05:35:28;;;;;;;2.28;1.55;;;;;;;12.71;100.00;100941.47;4931848;29;20234;-79
2023/05/27 05:37:56;;;;;;;2.78;1.60;;;;;;;12.78;100.00;100937.97;4920685;29;20302;-78
2023/05/27 05:40:23;;;;;;;2.42;1.83;;;;;;;12.72;100.00;100920.25;4928575;29;20235;-77
2023/05/27 05:42:51;;;;;;;1.92;1.42;;;;;;;12.74;100.00;100910.53;4925197;29;20240;-77
2023/05/27 05:45:19;;;;;;;1.70;1.30;;;;;;;12.82;100.00;100907.94;4929152;29;20242;-76
2023/05/27 05:47:46;;;;;;;2.42;1.60;;;;;;;12.91;100.00;100908.00;4928066;29;20229;-77
2023/05/27 05:50:14;;;;;;;2.97;1.80;;;;;;;12.88;100.00;100900.00;4929580;29;20234;-76
2023/05/27 05:52:41;;;;;;;2.80;1.77;;;;;;;12.90;100.00;100886.75;4920736;29;20231;-81
2023/05/27 05:55:09;;;;;;;3.42;2.08;;;;;;;12.95;100.00;100883.25;4923275;29;20235;-81
2023/05/27 05:57:36;;;;;;;2.53;1.60;;;;;;;12.95;100.00;100877.06;4931237;29;20238;-79
2023/05/27 06:00:05;;;;;;;3.50;1.90;;;;;;;13.23;100.00;100908.28;4921900;29;20238;-79
2023/05/27 06:02:33;;;;;;;3.42;2.20;;;;;;;13.21;100.00;100895.88;4929815;29;20238;-79
2023/05/27 06:05:00;;;;;;;2.17;1.38;;;;;;;13.38;100.00;100897.72;4928491;29;20264;-78
2023/05/27 06:07:28;;;;;;;2.70;1.73;;;;;;;13.52;100.00;100897.78;4908595;29;20237;-77
2023/05/27 06:09:56;;;;;;;1.40;1.13;;;;;;;13.46;100.00;100905.72;4922618;29;20235;-77
2023/05/27 06:12:24;;;;;;;2.05;1.45;;;;;;;13.47;100.00;100882.72;4924838;29;20730;-77
2023/05/27 06:14:53;;;;;;;2.15;1.40;;;;;;;13.64;100.00;100886.31;4925352;29;20234;-77
2023/05/27 06:17:21;;;;;;;2.13;1.40;;;;;;;13.69;100.00;100879.25;4926571;29;20234;-76
2023/05/27 06:19:48;;;;;;;2.35;1.50;;;;;;;13.78;100.00;100856.25;4922681;28;20761;-77
2023/05/27 06:22:16;;;;;;;3.13;1.83;;;;;;;13.84;100.00;100863.34;4922122;29;20309;-77
2023/05/27 06:24:44;;;;;;;2.78;2.03;;;;;;;14.06;100.00;100885.56;4923958;29;20246;-77
2023/05/27 06:27:11;;;;;;;2.03;1.40;;;;;;;14.10;100.00;100871.38;5026766;23;20242;-78
2023/05/27 06:29:38;;;;;;;2.17;1.77;;;;;;;14.20;100.00;100865.19;4904519;29;20227;-79
2023/05/27 06:32:06;;;;;;;1.27;1.15;;;;;;;14.41;100.00;100854.59;4908105;29;20239;-79
2023/05/27 06:34:34;;;;;;;2.22;1.55;;;;;;;14.45;100.00;100836.88;4907193;29;20235;-79
2023/05/27 06:37:01;;;;;;;1.85;1.40;;;;;;;14.57;100.00;100825.34;4912083;29;20240;-80
2023/05/27 06:39:29;;;;;;;2.80;1.83;;;;;;;14.61;100.00;100838.63;4912477;29;20251;-79
2023/05/27 06:41:56;;;;;;;1.92;1.30;;;;;;;14.72;100.00;100855.50;4914295;29;20242;-76
2023/05/27 06:44:24;;;;;;;2.25;1.42;;;;;;;14.69;100.00;100833.31;4908843;29;20250;-76
2023/05/27 06:46:51;;;;;;;2.10;1.58;;;;;;;14.73;100.00;100796.03;4905422;29;20234;-77
2023/05/27 06:49:20;;;;;;;1.77;1.33;;;;;;;14.89;100.00;100809.31;4889481;29;20231;-77
2023/05/27 06:51:47;;;;;;;2.20;1.48;;;;;;;14.62;100.00;100747.25;4903607;29;20259;-76
2023/05/27 06:54:15;;;;;;;2.20;1.60;;;;;;;14.90;100.00;100757.81;4910840;29;20235;-78
2023/05/27 06:56:42;;;;;;;1.90;1.40;;;;;;;15.12;100.00;100758.63;4913952;29;20231;-77
2023/05/27 06:59:10;;;;;;;1.95;1.45;;;;;;;15.12;100.00;100710.66;4913124;29;20239;-75
2023/05/27 07:01:37;;;;;;;2.10;1.55;;;;;;;15.34;100.00;100710.53;4910459;29;20539;-77
2023/05/27 07:04:05;;;;;;;1.88;1.25;;;;;;;15.46;100.00;100706.91;4914552;29;20235;-78
2023/05/27 07:06:32;;;;;;;2.42;1.55;;;;;;;15.33;100.00;100659.91;4910916;29;20242;-77
2023/05/27 07:08:59;;;;;;;2.70;2.00;;;;;;;15.36;100.00;100654.56;4907352;28;20261;-77
2023/05/27 07:11:27;;;;;;;1.98;1.38;;;;;;;15.81;100.00;100668.50;4905999;29;20322;-76
2023/05/27 07:13:55;;;;;;;1.67;1.25;;;;;;;16.21;100.00;100680.56;4909316;29;20231;-76
2023/05/27 07:16:22;;;;;;;2.88;1.92;;;;;;;15.84;100.00;100584.03;4912444;29;20227;-76
2023/05/27 07:18:50;;;;;;;1.63;1.25;;;;;;;15.97;100.00;100593.66;4910291;29;20243;-76
2023/05/27 07:21:18;;;;;;;1.40;1.10;;;;;;;15.87;100.00;100557.31;4914443;29;20238;-78
2023/05/27 07:23:45;;;;;;;1.30;1.10;;;;;;;16.18;100.00;100599.66;4915326;29;20243;-78
2023/05/27 07:26:12;;;;;;;1.33;1.10;;;;;;;16.36;100.00;100574.53;4914472;29;20336;-78
2023/05/27 07:28:40;;;;;;;1.33;1.13;;;;;;;16.26;100.00;100513.28;4912408;29;20246;-78
2023/05/27 07:31:07;;;;;;;1.77;1.67;;;;;;;16.45;100.00;100503.25;4917981;29;20239;-79
2023/05/27 07:33:35;;;;;;;1.33;1.15;;;;;;;16.57;100.00;100513.75;4905860;29;20269;-79
2023/05/27 07:36:02;;;;;;;1.25;1.15;;;;;;;16.40;100.00;100445.50;4908342;29;20242;-79
2023/05/27 07:38:30;;;;;;;1.08;0.98;;;;;;;16.32;100.00;100430.47;4910772;28;20243;-78
2023/05/27 07:40:58;;;;;;;0.88;0.80;;;;;;;16.72;100.00;100479.75;4915118;28;20251;-79
2023/05/27 07:43:25;;;;;;;1.50;1.17;;;;;;;16.98;100.00;100479.38;4923830;29;20236;-79
2023/05/27 07:45:53;;;;;;;1.15;1.00;;;;;;;16.98;100.00;100472.22;4914902;29;20254;-79
2023/05/27 07:48:20;;;;;;;0.93;0.77;;;;;;;16.90;100.00;100463.44;4911940;29;20242;-80
2023/05/27 07:50:47;;;;;;;1.02;0.90;;;;;;;17.06;100.00;100491.69;4919155;29;20617;-79
2023/05/27 07:53:15;;;;;;;1.13;1.00;;;;;;;17.05;100.00;100419.56;4911418;29;20250;-80
2023/05/27 07:55:43;;;;;;;0.90;0.80;;;;;;;17.09;100.00;100399.91;4909820;29;20389;-79
2023/05/27 07:58:10;;;;;;;1.50;1.08;;;;;;;17.14;100.00;100382.88;4916276;29;20581;-81
2023/05/27 08:00:38;;;;;;;0.55;0.55;;;;;;;17.34;100.00;100379.81;4915252;29;20242;-81
2023/05/27 08:03:05;;;;;;;1.23;1.02;;;;;;;17.63;100.00;100399.75;4913115;29;20276;-80
2023/05/27 08:05:33;;;;;;;0.75;0.73;;;;;;;17.56;100.00;100369.59;4912209;29;20243;-79
2023/05/27 08:08:01;;;;;;;1.27;0.98;;;;;;;17.82;100.00;100347.66;4913436;29;20235;-79
2023/05/27 08:10:28;;;;;;;0.70;0.70;;;;;;;17.96;100.00;100360.75;4915023;29;20242;-80
2023/05/27 08:12:56;;;;;;;1.20;1.15;;;;;;;18.04;100.00;100306.13;4914653;28;20237;-79
2023/05/27 08:15:23;;;;;;;1.55;1.25;;;;;;;18.09;100.00;100296.19;4907710;29;20235;-79
2023/05/27 08:17:51;;;;;;;1.52;1.35;;;;;;;18.16;100.00;100303.16;4912797;29;20311;-79
2023/05/27 08:20:18;;;;;;;1.23;1.13;;;;;;;18.10;100.00;100276.56;4911956;29;20251;-80
2023/05/27 08:22:46;;;;;;;2.58;1.75;;;;;;;18.45;100.00;100317.66;4917307;29;20241;-80
2023/05/27 08:25:14;;;;;;;0.70;0.70;;;;;;;18.23;100.00;100226.31;4921700;29;20243;-79
2023/05/27 08:27:54;;;;;;;1.00;0.95;;;18.20;99.90;;;18.45;100.00;100272.16;4913638;29;20243;-80
2023/05/27 08:30:22;;;;;;;1.00;0.90;;;;;;;18.66;100.00;100276.09;4908390;29;20266;-80
2023/05/27 08:37:57;;;;;;;1.08;0.98;;;;;;;19.01;100.00;100225.09;4879879;29;20299;-77
2023/05/27 08:40:24;;;;;;;0.70;0.70;;;;;;;18.93;100.00;100129.75;4883205;29;20242;-75
2023/05/27 08:42:54;;;;;;;0.55;0.55;;;;;;;19.47;100.00;100216.56;4888640;29;20243;-76
2023/05/27 08:45:22;;;;;;;1.40;0.70;;;;;;;18.99;100.00;100089.38;4896694;29;20239;-76
2023/05/27 08:47:50;;;;;;;0.35;0.35;;;;;;;19.44;100.00;100181.78;4873714;29;20239;-77
2023/05/27 08:50:17;;;;;;;0.85;0.60;;;;;;;19.52;100.00;100122.59;4879986;29;20315;-77
2023/05/27 08:52:47;;;;;;;0.30;0.30;;;19.40;99.90;;;19.74;100.00;100142.44;4878551;29;20585;-77
2023/05/27 08:55:17;;;;;;;1.75;1.20;;;19.40;99.90;;;19.59;100.00;100080.34;4882839;29;20254;-77
2023/05/27 08:57:50;;;;;;;0.82;0.63;;;19.70;99.90;;;20.03;100.00;100136.06;4887296;29;20815;-77
2023/05/27 09:00:19;;;;;;;2.03;1.33;;;;;;;19.72;100.00;100046.81;4888821;29;20250;-77
2023/05/27 09:02:47;;;;;;;1.27;0.95;;;;;;;19.67;100.00;99987.09;4891470;29;20326;-77
2023/05/27 09:05:16;;;;;;;2.85;1.35;;;19.60;99.90;;;19.70;100.00;99986.97;4887471;29;20234;-78
2023/05/27 09:07:44;;;;;;;1.55;1.05;;;19.30;99.90;;;19.70;100.00;99946.75;4886162;29;20327;-77
2023/05/27 09:10:11;;;;;;;5.32;3.50;;;;;;;20.05;100.00;100048.31;4882871;29;20247;-78
2023/05/27 09:12:41;;;;;;;2.17;1.33;;;;;;;19.86;100.00;99958.66;4888025;29;20250;-78
2023/05/27 09:15:09;;;;;;;4.03;2.53;;;20.10;99.60;;;20.26;100.00;99947.31;4895612;29;20709;-78
2023/05/27 09:17:43;;;;;;;2.70;1.58;;;19.80;99.90;;;20.10;100.00;99909.44;4878991;29;20254;-78
2023/05/27 09:20:12;;;;;;;1.85;1.10;;;20.20;99.90;;;20.52;100.00;99989.31;4891721;29;20241;-78
2023/05/27 09:22:41;;;;;;;2.63;1.45;;;20.20;99.90;;;20.41;100.00;99952.13;4874180;29;20386;-78
2023/05/27 09:25:09;;;;;;;1.60;1.10;;;;;;;20.81;100.00;100003.44;4891647;29;20607;-81
2023/05/27 09:27:39;;;;;;;1.38;1.05;;;;;;;21.45;100.00;100043.88;4893698;29;20245;-78
2023/05/27 09:30:09;;;;;;;1.50;0.98;;;21.00;99.90;;;21.11;100.00;99959.19;4905335;29;20232;-78
2023/05/27 09:32:36;;;;;;;0.85;0.70;;;;;;;21.29;100.00;99920.78;4889440;29;20235;-78
2023/05/27 09:35:07;;;;;;;1.00;0.90;;;21.10;99.90;;;21.38;100.00;99931.16;4890044;29;20235;-77
2023/05/27 09:37:35;;;;;;;1.08;0.98;;;;;;;21.32;100.00;99885.69;4885726;29;20334;-78
2023/05/27 09:40:07;;;;;;;1.30;0.80;;;21.30;99.90;;;21.48;100.00;99906.53;4890579;29;20238;-78
2023/05/27 09:42:44;;;;;;;1.40;1.05;;;21.10;99.00;;;21.46;100.00;99804.38;4896355;29;20234;-79
2023/05/27 09:45:20;;;;;;;2.25;1.77;;;21.40;99.90;;;21.76;100.00;99908.88;4871616;29;20256;-78
2023/05/27 09:47:52;;;;;;;1.13;0.93;;;21.50;98.50;;;21.50;100.00;99792.53;4870936;29;20263;-78
2023/05/27 09:50:21;;;;;;;1.25;0.95;;;21.90;98.40;;;22.36;100.00;99819.00;4886862;29;20278;-78
2023/05/27 09:52:49;;;;;;;1.95;1.23;;;22.30;99.30;;;22.40;100.00;99843.97;4874487;29;20227;-78
2023/05/27 09:55:32;;;;;;;1.92;1.48;;;;;;;22.18;100.00;99761.53;4871136;29;20323;-78
2023/05/27 09:58:01;;;;;;;2.00;1.70;;;;;;;22.31;100.00;99805.75;4862126;29;20315;-78
2023/05/27 10:00:30;;;;;;;1.35;0.98;;;22.40;99.20;;;22.67;100.00;99829.13;4885165;29;20227;-78
2023/05/27 10:02:58;;;;;;;3.05;2.03;;;;;;;22.12;99.29;99639.78;4886370;29;20247;-78
2023/05/27 10:05:27;;;;;;;2.58;1.23;;;22.00;97.90;;;22.27;100.00;99674.00;4877630;29;20227;-78
2023/05/27 10:07:55;;;;;;;1.13;0.85;;;;;;;22.99;100.00;99768.19;4879544;29;20255;-78
2023/05/27 10:10:25;;;;;;;1.27;0.82;;;;;;;23.04;99.10;99709.50;4877210;29;20239;-79
2023/05/27 10:12:54;;;;;;;2.05;1.30;;;22.80;96.60;;;22.75;95.85;99586.16;4889576;29;20809;-78
2023/05/27 10:15:28;;;;;;;1.13;0.90;;;22.70;96.80;;;22.51;96.74;99545.25;4871099;29;20258;-78
2023/05/27 10:17:58;;;;;;;1.40;1.00;;;22.60;96.30;;;22.66;96.75;99568.66;4862044;29;20321;-78
2023/05/27 10:20:32;;;;;;;1.20;0.82;;;;;;;22.71;92.59;99501.03;4870468;29;20240;-82
2023/05/27 10:23:15;;;;;;;1.20;0.90;;;23.10;96.50;;;23.64;89.16;99563.22;4878544;29;20237;-79
2023/05/27 10:26:07;;;;;;;1.33;0.70;;;23.00;98.00;;;23.51;99.42;99636.78;4875740;29;20605;-80
2023/05/27 10:28:40;;;;;;;1.13;0.75;;;23.00;96.40;;;22.87;96.13;99486.66;4878245;29;20247;-79
2023/05/27 10:31:14;;;;;;;1.08;0.80;;;23.20;95.90;;;23.41;91.75;99516.84;4877509;29;20708;-79
2023/05/27 10:33:50;;;;;;;1.15;0.85;;;23.40;96.70;;;23.63;90.16;99475.13;4873679;29;20696;-79
2023/05/27 10:36:24;;;;;;;0.75;0.57;;;23.80;97.60;;;24.12;96.52;99606.22;4877970;29;20270;-80
2023/05/27 10:39:17;;;;;;;1.45;0.98;;;24.00;96.20;;;24.66;91.76;99589.47;4877611;29;20255;-79
2023/05/27 10:41:50;;;;;;;2.50;1.42;;;24.30;97.20;;;24.28;97.67;99562.97;4872872;29;20239;-78
2023/05/27 10:44:33;;;;;;;20.73;2.03;;;23.90;96.00;;;24.14;91.61;99460.28;4872559;29;20241;-78
2023/05/27 10:47:01;;;;;;;1.92;1.30;;;;;;;24.37;95.07;99494.00;4874747;29;20291;-78
2023/05/27 10:49:35;;;;;;;2.13;1.50;;;;;;;24.12;92.77;99424.38;4870654;29;20245;-78
2023/05/27 10:52:12;;;;;;;1.70;1.20;;;23.90;96.50;;;24.00;92.46;99390.91;4873724;29;20272;-78
2023/05/27 10:54:42;;;;;;;1.67;1.40;;;23.80;96.60;;;24.00;93.45;99374.72;4875415;29;20247;-77
2023/05/27 10:57:09;;;;;;;1.17;0.85;;;;;;;25.23;93.88;99549.78;4875640;29;20246;-77
2023/05/27 10:59:52;;;;;;;0.80;0.63;;;24.80;95.70;;;24.41;91.08;99358.59;4877487;29;20240;-78
2023/05/27 11:02:21;;;;;;;1.00;0.80;;;;;;;24.91;89.08;99383.28;4873046;29;20235;-81
2023/05/27 11:04:49;;;;;;;2.58;2.33;;;24.60;97.00;;;24.36;91.89;99312.09;4877515;29;20257;-77
2023/05/27 11:07:21;;;;;;;1.50;1.10;;;24.70;94.50;;;24.68;84.30;99258.59;4875530;29;20232;-79
2023/05/27 11:09:51;;;;;;;0.70;0.70;;;24.50;95.90;;;24.52;90.24;99283.06;4872876;29;20322;-82
2023/05/27 11:12:21;;;;;;;1.08;0.60;;;24.60;96.10;;;24.96;88.93;99311.69;4874403;29;20295;-78
2023/05/27 11:14:54;;;;;;;0.60;0.60;;;24.80;93.70;;;25.28;78.62;99244.59;4881801;29;20260;-78